createdAt,value
2022-10-09T00:02:25.774Z,11.35
2022-10-09T00:05:28.040Z,12.73
2022-10-09T00:08:44.753Z,12.00
2022-10-09T00:11:46.444Z,11.85
2022-10-09T00:15:00.765Z,11.50
2022-10-09T00:18:02.594Z,11.57
2022-10-09T00:21:29.796Z,12.00
2022-10-09T00:24:37.776Z,10.87
2022-10-09T00:27:52.793Z,11.77
2022-10-09T00:30:55.156Z,11.95
2022-10-09T00:34:09.768Z,11.82
2022-10-09T00:37:17.795Z,11.23
2022-10-09T00:40:26.339Z,11.10
2022-10-09T00:43:46.814Z,10.77
2022-10-09T00:46:55.434Z,11.18
2022-10-09T00:50:09.820Z,10.80
2022-10-09T00:53:27.814Z,10.50
2022-10-09T00:56:29.620Z,10.93
2022-10-09T00:59:46.769Z,10.52
2022-10-09T01:03:01.808Z,10.82
2022-10-09T01:06:31.805Z,10.35
2022-10-09T01:09:53.800Z,10.70
2022-10-09T01:13:22.358Z,10.43
2022-10-09T01:16:35.806Z,11.57
2022-10-09T01:20:09.806Z,10.48
2022-10-09T01:23:43.444Z,9.95
2022-10-09T01:27:00.791Z,10.70
2022-10-09T01:30:18.861Z,10.97
2022-10-09T01:33:20.642Z,11.30
2022-10-09T01:36:36.845Z,11.38
2022-10-09T01:39:53.813Z,11.68
2022-10-09T01:43:02.699Z,10.93
2022-10-09T01:46:36.006Z,10.97
2022-10-09T01:49:56.819Z,12.37
2022-10-09T01:53:09.555Z,12.32
2022-10-09T01:56:23.854Z,11.43
2022-10-09T01:59:39.471Z,12.20
2022-10-09T02:02:49.111Z,12.20
2022-10-09T02:05:58.208Z,12.20
2022-10-09T02:09:07.827Z,13.15
2022-10-09T02:12:18.798Z,11.70
2022-10-09T02:15:28.885Z,12.37
2022-10-09T02:18:49.846Z,12.27
2022-10-09T02:22:13.867Z,11.77
2022-10-09T02:25:28.885Z,12.80
2022-10-09T02:28:39.076Z,11.88
2022-10-09T02:31:48.430Z,12.55
2022-10-09T02:34:57.863Z,12.80
2022-10-09T02:38:12.815Z,13.25
2022-10-09T02:41:28.841Z,13.13
2022-10-09T02:44:30.582Z,12.37
2022-10-09T02:47:44.870Z,14.27
2022-10-09T02:50:46.600Z,12.97
2022-10-09T02:54:01.866Z,13.40
2022-10-09T02:57:10.405Z,13.07
2022-10-09T03:00:18.857Z,13.77
2022-10-09T03:03:27.360Z,13.55
2022-10-09T03:06:40.055Z,13.03
2022-10-09T03:09:54.841Z,13.48
2022-10-09T03:12:56.656Z,13.95
2022-10-09T03:16:12.996Z,13.20
2022-10-09T03:19:21.843Z,13.52
2022-10-09T03:22:37.110Z,14.00
2022-10-09T03:25:45.839Z,14.70
2022-10-09T03:28:55.826Z,13.55
2022-10-09T03:32:10.988Z,13.95
2022-10-09T03:35:19.502Z,14.82
2022-10-09T03:38:33.920Z,14.67
2022-10-09T03:41:41.924Z,13.30
2022-10-09T03:44:50.396Z,13.75
2022-10-09T03:47:58.863Z,15.18
2022-10-09T03:51:07.388Z,14.43
2022-10-09T03:54:21.868Z,14.33
2022-10-09T03:57:30.606Z,14.65
2022-10-09T04:00:45.951Z,16.33
2022-10-09T04:03:53.884Z,15.40
2022-10-09T04:07:08.894Z,15.25
2022-10-09T04:10:11.080Z,17.03
2022-10-09T04:13:25.912Z,15.00
2022-10-09T04:16:33.939Z,15.48
2022-10-09T04:19:42.445Z,15.77
2022-10-09T04:23:03.883Z,15.55
2022-10-09T04:26:12.904Z,16.10
2022-10-09T04:29:27.879Z,16.48
2022-10-09T04:32:36.552Z,15.35
2022-10-09T04:35:48.917Z,16.37
2022-10-09T04:39:03.893Z,15.40
2022-10-09T04:42:12.554Z,16.30
2022-10-09T04:45:20.934Z,17.75
2022-10-09T04:48:35.911Z,15.68
2022-10-09T04:51:43.899Z,17.05
2022-10-09T04:54:52.508Z,19.25
2022-10-09T04:58:00.998Z,14.90
2022-10-09T05:01:20.030Z,16.25
2022-10-09T05:04:21.893Z,18.37
2022-10-09T05:07:36.927Z,16.85
2022-10-09T05:10:51.915Z,16.98
2022-10-09T05:13:55.640Z,16.47
2022-10-09T05:17:14.165Z,17.37
2022-10-09T05:20:29.190Z,18.35
2022-10-09T05:23:43.921Z,16.87
2022-10-09T05:26:45.643Z,17.50
2022-10-09T05:29:59.927Z,18.07
2022-10-09T05:33:08.687Z,17.02
2022-10-09T05:36:16.989Z,18.58
2022-10-09T05:39:25.620Z,19.00
2022-10-09T05:42:39.931Z,17.95
2022-10-09T05:45:47.945Z,15.80
2022-10-09T05:48:58.911Z,17.20
2022-10-09T05:52:13.973Z,16.75
2022-10-09T05:55:22.509Z,16.35
2022-10-09T05:58:36.951Z,17.33
2022-10-09T06:01:55.116Z,15.97
2022-10-09T06:04:56.907Z,16.52
2022-10-09T06:08:11.983Z,16.08
2022-10-09T06:11:17.224Z,17.52
2022-10-09T06:14:31.926Z,17.80
2022-10-09T06:17:33.939Z,18.73
2022-10-09T06:21:02.950Z,17.67
2022-10-09T06:24:22.261Z,17.17
2022-10-09T06:27:39.927Z,16.00
2022-10-09T06:30:41.726Z,16.87
2022-10-09T06:33:56.983Z,16.63
2022-10-09T06:36:58.727Z,16.15
2022-10-09T06:40:13.959Z,16.35
2022-10-09T06:43:28.978Z,14.70
2022-10-09T06:46:40.805Z,16.33
2022-10-09T06:49:56.003Z,15.13
2022-10-09T06:53:03.978Z,16.10
2022-10-09T06:56:13.083Z,13.85
2022-10-09T06:59:27.974Z,15.20
2022-10-09T07:02:40.459Z,16.60
2022-10-09T07:05:50.963Z,14.33
2022-10-09T07:09:02.436Z,14.30
2022-10-09T07:12:11.032Z,14.20
2022-10-09T07:15:19.534Z,13.93
2022-10-09T07:18:34.015Z,14.25
2022-10-09T07:21:46.226Z,14.03
2022-10-09T07:25:01.179Z,13.43
2022-10-09T07:28:03.061Z,13.27
2022-10-09T07:31:19.038Z,11.77
2022-10-09T07:34:27.026Z,12.35
2022-10-09T07:37:35.583Z,10.27
2022-10-09T07:40:50.001Z,10.38
2022-10-09T07:43:59.051Z,10.50
2022-10-09T07:47:14.108Z,9.18
2022-10-09T07:50:23.062Z,9.23
2022-10-09T07:53:38.059Z,8.77
2022-10-09T07:56:53.027Z,9.63
2022-10-09T07:59:54.724Z,9.73
2022-10-09T08:03:09.083Z,9.40
2022-10-09T08:06:10.898Z,10.13
2022-10-09T08:09:26.015Z,10.17
2022-10-09T08:12:34.039Z,11.20
2022-10-09T08:15:43.850Z,10.63
2022-10-09T08:18:51.991Z,11.52
2022-10-09T08:22:07.316Z,10.70
2022-10-09T08:25:16.078Z,9.73
2022-10-09T08:28:25.071Z,9.25
2022-10-09T08:31:35.071Z,10.10
2022-10-09T08:34:43.554Z,9.13
2022-10-09T08:37:52.007Z,9.32
2022-10-09T08:41:15.029Z,8.53
2022-10-09T08:44:29.256Z,9.07
2022-10-09T08:47:54.119Z,8.25
2022-10-09T08:50:58.770Z,9.07
2022-10-09T08:54:31.067Z,9.43
2022-10-09T08:57:39.889Z,8.33
2022-10-09T09:01:09.086Z,8.43
2022-10-09T09:04:36.004Z,6.97
2022-10-09T09:08:07.054Z,8.32
2022-10-09T09:11:28.752Z,8.52
2022-10-09T09:15:05.048Z,7.73
2022-10-09T09:18:32.306Z,7.20
2022-10-09T09:21:55.043Z,7.70
2022-10-09T09:24:58.620Z,7.65
2022-10-09T09:28:27.110Z,6.20
2022-10-09T09:31:34.749Z,6.77
2022-10-09T09:34:49.095Z,6.30
2022-10-09T09:37:50.990Z,6.72
2022-10-09T09:41:06.082Z,7.00
2022-10-09T09:44:17.139Z,7.25
2022-10-09T09:47:34.527Z,7.00
2022-10-09T09:50:52.932Z,6.57
2022-10-09T09:54:24.079Z,7.85
2022-10-09T09:57:41.124Z,6.50
2022-10-09T10:01:00.281Z,6.72
2022-10-09T10:04:10.096Z,6.63
2022-10-09T10:07:29.932Z,6.15
2022-10-09T10:10:39.089Z,6.80
2022-10-09T10:13:49.112Z,6.45
2022-10-09T10:17:00.090Z,7.10
2022-10-09T10:20:15.115Z,7.17
2022-10-09T10:23:36.379Z,6.80
2022-10-09T10:26:50.087Z,6.60
2022-10-09T10:30:09.112Z,7.20
2022-10-09T10:33:21.108Z,6.65
2022-10-09T10:36:36.156Z,6.27
2022-10-09T10:39:45.863Z,6.30
2022-10-09T10:43:21.100Z,7.12
2022-10-09T10:46:44.121Z,6.75
2022-10-09T10:49:53.232Z,6.18
2022-10-09T10:53:23.159Z,7.10
2022-10-09T10:56:40.197Z,6.87
2022-10-09T11:00:10.110Z,7.65
2022-10-09T11:03:41.807Z,7.32
2022-10-09T11:07:09.125Z,6.85
2022-10-09T11:10:38.139Z,6.30
2022-10-09T11:14:01.910Z,7.12
2022-10-09T11:17:37.140Z,7.03
2022-10-09T11:21:10.113Z,6.62
2022-10-09T11:25:05.146Z,7.20
2022-10-09T11:28:19.386Z,6.93
2022-10-09T11:31:42.198Z,7.20
2022-10-09T11:35:14.129Z,7.53
2022-10-09T11:38:27.115Z,7.07
2022-10-09T11:41:43.160Z,6.85
2022-10-09T11:45:12.125Z,6.87
2022-10-09T11:48:48.023Z,6.80
2022-10-09T11:52:09.188Z,7.15
2022-10-09T11:55:23.690Z,6.75
2022-10-09T11:58:32.136Z,6.60
2022-10-09T12:01:42.165Z,6.33
2022-10-09T12:04:54.847Z,7.22
2022-10-09T12:08:26.262Z,6.87
2022-10-09T12:11:36.156Z,6.75
2022-10-09T12:14:47.999Z,7.12
2022-10-09T12:18:03.188Z,7.10
2022-10-09T12:21:24.664Z,7.10
2022-10-09T12:24:51.225Z,6.47
2022-10-09T12:28:07.457Z,7.10
2022-10-09T12:31:26.213Z,6.57
2022-10-09T12:34:48.211Z,7.47
2022-10-09T12:38:03.202Z,11.63
2022-10-09T12:41:20.277Z,7.18
2022-10-09T12:44:35.969Z,7.28
2022-10-09T12:47:50.199Z,7.47
2022-10-09T12:50:53.188Z,7.03
2022-10-09T12:54:15.220Z,6.60
2022-10-09T12:57:31.175Z,6.50
2022-10-09T13:00:40.422Z,6.72
2022-10-09T13:03:58.541Z,5.78
2022-10-09T13:07:18.605Z,6.57
2022-10-09T13:10:36.189Z,6.12
2022-10-09T13:13:45.332Z,6.70
2022-10-09T13:17:00.319Z,7.20
2022-10-09T13:20:25.371Z,7.47
2022-10-09T13:23:48.024Z,6.73
2022-10-09T13:26:49.760Z,7.43
2022-10-09T13:30:04.279Z,7.37
2022-10-09T13:33:20.236Z,7.15
2022-10-09T13:36:35.244Z,6.68
2022-10-09T13:39:43.832Z,9.13
2022-10-09T13:43:02.251Z,7.18
2022-10-09T13:46:10.824Z,6.78
2022-10-09T13:49:19.220Z,8.23
2022-10-09T13:52:34.266Z,8.80
2022-10-09T13:55:49.220Z,7.63
2022-10-09T13:58:58.331Z,6.97
2022-10-09T14:02:07.564Z,8.13
2022-10-09T14:05:15.826Z,7.80
2022-10-09T14:08:32.504Z,7.53
2022-10-09T14:11:34.796Z,7.20
2022-10-09T14:14:49.254Z,8.07
2022-10-09T14:17:51.376Z,7.68
2022-10-09T14:21:06.283Z,8.05
2022-10-09T14:24:14.593Z,8.10
2022-10-09T14:27:29.337Z,7.73
2022-10-09T14:30:38.296Z,6.97
2022-10-09T14:33:48.354Z,7.78
2022-10-09T14:36:57.295Z,7.78
2022-10-09T14:40:12.267Z,7.87
2022-10-09T14:43:20.276Z,7.37
2022-10-09T14:46:30.047Z,7.55
2022-10-09T14:49:38.284Z,8.05
2022-10-09T14:52:47.018Z,7.25
2022-10-09T14:55:55.302Z,7.57
2022-10-09T14:59:05.362Z,7.80
2022-10-09T15:02:22.296Z,7.57
2022-10-09T15:05:30.903Z,8.13
2022-10-09T15:08:41.314Z,8.10
2022-10-09T15:11:56.283Z,7.12
2022-10-09T15:14:58.030Z,7.53
2022-10-09T15:18:12.312Z,7.40
2022-10-09T15:21:37.278Z,7.60
2022-10-09T15:24:39.057Z,7.90
2022-10-09T15:27:55.060Z,8.00
2022-10-09T15:31:07.304Z,8.37
2022-10-09T15:34:18.170Z,7.47
2022-10-09T15:37:33.486Z,7.55
2022-10-09T15:40:50.462Z,9.38
2022-10-09T15:44:01.066Z,7.57
2022-10-09T15:47:09.305Z,7.63
2022-10-09T15:50:20.424Z,7.72
2022-10-09T15:53:30.331Z,7.90
2022-10-09T15:56:45.333Z,6.97
2022-10-09T15:59:47.172Z,6.03
2022-10-09T16:03:02.346Z,6.43
2022-10-09T16:06:14.283Z,8.85
2022-10-09T16:09:30.383Z,6.75
2022-10-09T16:12:32.143Z,5.85
2022-10-09T16:15:48.342Z,5.70
2022-10-09T16:18:51.244Z,5.13
2022-10-09T16:22:06.310Z,4.82
2022-10-09T16:25:21.302Z,4.82
2022-10-09T16:28:30.844Z,4.30
2022-10-09T16:31:42.300Z,4.60
2022-10-09T16:34:50.888Z,4.57
2022-10-09T16:37:59.339Z,4.10
2022-10-09T16:41:19.381Z,4.57
2022-10-09T16:44:28.348Z,4.07
2022-10-09T16:47:36.963Z,4.65
2022-10-09T16:50:47.362Z,4.20
2022-10-09T16:53:59.423Z,4.85
2022-10-09T16:57:07.347Z,4.18
2022-10-09T17:00:19.374Z,4.53
2022-10-09T17:03:28.347Z,4.55
2022-10-09T17:06:46.363Z,4.20
2022-10-09T17:09:48.194Z,3.62
2022-10-09T17:13:10.456Z,4.12
2022-10-09T17:16:28.347Z,3.22
2022-10-09T17:19:44.392Z,3.80
2022-10-09T17:22:52.661Z,4.00
2022-10-09T17:26:17.388Z,3.10
2022-10-09T17:29:25.374Z,3.87
2022-10-09T17:32:33.888Z,3.80
2022-10-09T17:35:48.342Z,3.22
2022-10-09T17:38:50.739Z,3.10
2022-10-09T17:42:05.359Z,4.35
2022-10-09T17:45:08.576Z,4.05
2022-10-09T17:48:24.350Z,3.55
2022-10-09T17:51:39.378Z,3.20
2022-10-09T17:54:48.031Z,3.27
2022-10-09T17:57:56.424Z,2.72
2022-10-09T18:01:07.428Z,4.07
2022-10-09T18:04:21.386Z,3.60
2022-10-09T18:07:30.117Z,3.50
2022-10-09T18:10:38.430Z,3.00
2022-10-09T18:13:47.520Z,3.10
2022-10-09T18:17:02.375Z,3.35
2022-10-09T18:20:11.393Z,3.00
2022-10-09T18:23:26.660Z,3.80
2022-10-09T18:26:35.430Z,3.50
2022-10-09T18:29:44.017Z,3.55
2022-10-09T18:32:52.842Z,3.65
2022-10-09T18:36:12.419Z,3.45
2022-10-09T18:39:14.950Z,3.78
2022-10-09T18:42:29.455Z,3.90
2022-10-09T18:45:31.541Z,3.45
2022-10-09T18:48:47.403Z,3.75
2022-10-09T18:52:03.407Z,4.00
2022-10-09T18:55:14.952Z,3.60
2022-10-09T18:58:23.462Z,3.30
2022-10-09T19:01:32.210Z,3.97
2022-10-09T19:04:47.479Z,3.42
2022-10-09T19:07:56.174Z,3.60
2022-10-09T19:11:04.455Z,4.12
2022-10-09T19:14:13.928Z,3.80
2022-10-09T19:17:22.444Z,4.53
2022-10-09T19:20:40.473Z,3.65
2022-10-09T19:23:50.843Z,3.37
2022-10-09T19:27:06.420Z,3.65
2022-10-09T19:30:09.011Z,4.13
2022-10-09T19:33:24.494Z,3.60
2022-10-09T19:36:26.259Z,6.00
2022-10-09T19:39:41.437Z,3.75
2022-10-09T19:42:50.113Z,4.40
2022-10-09T19:46:09.503Z,3.50
2022-10-09T19:49:18.212Z,3.70
2022-10-09T19:52:32.486Z,4.10
2022-10-09T19:55:41.226Z,3.92
2022-10-09T19:58:51.443Z,3.42
2022-10-09T20:02:00.036Z,4.50
2022-10-09T20:05:08.479Z,4.78
2022-10-09T20:08:17.444Z,5.50
2022-10-09T20:11:26.470Z,3.40
2022-10-09T20:14:41.427Z,4.90
2022-10-09T20:17:50.026Z,4.07
2022-10-09T20:21:04.431Z,3.95
2022-10-09T20:24:12.752Z,3.70
2022-10-09T20:27:27.473Z,3.55
2022-10-09T20:30:36.060Z,3.22
2022-10-09T20:33:54.459Z,5.23
2022-10-09T20:36:56.178Z,3.20
2022-10-09T20:40:11.476Z,6.35
2022-10-09T20:43:22.643Z,2.72
2022-10-09T20:46:34.693Z,3.05
2022-10-09T20:49:43.550Z,3.10
2022-10-09T20:52:52.527Z,2.45
2022-10-09T20:56:07.485Z,2.67
2022-10-09T20:59:17.266Z,2.87
2022-10-09T21:02:25.540Z,2.80
2022-10-09T21:05:46.482Z,2.60
2022-10-09T21:08:55.494Z,3.00
2022-10-09T21:12:10.494Z,2.33
2022-10-09T21:15:12.251Z,2.22
2022-10-09T21:18:26.496Z,2.33
2022-10-09T21:21:29.879Z,2.10
2022-10-09T21:24:51.488Z,2.10
2022-10-09T21:27:59.542Z,2.28
2022-10-09T21:31:09.375Z,2.08
2022-10-09T21:34:24.525Z,2.62
2022-10-09T21:37:35.605Z,2.43
2022-10-09T21:40:46.701Z,2.10
2022-10-09T21:44:01.491Z,2.30
2022-10-09T21:47:09.536Z,2.62
2022-10-09T21:50:18.177Z,2.90
2022-10-09T21:53:26.532Z,2.60
2022-10-09T21:56:35.322Z,2.62
2022-10-09T21:59:43.501Z,2.55
2022-10-09T22:02:52.410Z,3.92
2022-10-09T22:06:17.779Z,2.40
2022-10-09T22:09:27.515Z,2.57
2022-10-09T22:12:36.127Z,2.47
2022-10-09T22:15:51.597Z,2.30
2022-10-09T22:18:59.511Z,2.10
2022-10-09T22:22:08.250Z,2.92
2022-10-09T22:25:29.527Z,1.80
2022-10-09T22:28:31.818Z,2.12
2022-10-09T22:31:46.563Z,2.17
2022-10-09T22:34:57.529Z,2.03
2022-10-09T22:38:12.565Z,2.92
2022-10-09T22:41:18.196Z,1.90
2022-10-09T22:44:32.533Z,1.95
2022-10-09T22:47:41.087Z,2.10
2022-10-09T22:50:55.507Z,2.10
2022-10-09T22:54:04.909Z,2.25
2022-10-09T22:57:19.528Z,1.93
2022-10-09T23:00:28.196Z,2.08
2022-10-09T23:03:36.515Z,1.85
2022-10-09T23:06:45.935Z,2.05
2022-10-09T23:09:54.532Z,1.98
2022-10-09T23:13:03.077Z,3.30
2022-10-09T23:16:18.623Z,2.25
2022-10-09T23:19:27.151Z,1.95
2022-10-09T23:22:41.537Z,1.90
2022-10-09T23:25:56.615Z,1.83
2022-10-09T23:29:14.526Z,1.73
2022-10-09T23:32:23.197Z,1.70
2022-10-09T23:35:38.555Z,1.58
2022-10-09T23:38:41.022Z,1.60
2022-10-09T23:41:55.554Z,1.87
2022-10-09T23:44:57.352Z,2.03
2022-10-09T23:48:11.567Z,1.55
2022-10-09T23:51:14.975Z,1.62
2022-10-09T23:54:29.587Z,1.60
2022-10-09T23:57:44.647Z,1.60
